Impacts TAF Board
For situational awareness. Not to be used for flight planning purposes.
IDs:

KORD - Chicago/O'Hare Intl, IL, US

Issued at 1503 UTC 01 Mar 2021
Updated at 1658 UTC 01 Mar 2021
Potential Impact None Slight Moderate High
Time1651Z 01/17Z 01/18Z 01/19Z 01/20Z 01/21Z 01/22Z 01/23Z 02/00Z 02/01Z 02/02Z 02/03Z 02/04Z 02/05Z>>
Type OBS PRVL PRVL PRVL PRVL PRVL PRVL PRVL PRVL PRVL PRVL PRVL PRVL PRVL
VIS 10 >6 >6 >6 >6 >6 >6 >6 >6 >6 >6 >6 >6 >6
CIG 33 100 35 35 -- -- -- -- -- -- -- -- -- --
Cover BKN BKN BKN BKN SKC SKC SKC SKC SKC SKC SKC SKC SKC SKC
FltCat VFR VFR VFR VFR VFR VFR VFR VFR VFR VFR VFR VFR VFR VFR
WX -- -- -- -- -- -- -- -- -- -- -- -- -- --
WDir 340 310 330 330 10 10 10 10 10 10 10 10 180 180
WSpd 13 13 13 13 9 9 9 9 9 9 9 9 3 3
WGst -- -- -- -- -- -- -- -- -- -- -- -- -- --
Raw TAF
KORD 011503Z 0115/0218 31013KT P6SM BKN100
  FM011800 33013KT P6SM BKN035
  FM012000 01009KT P6SM SKC
  FM020400 18003KT P6SM SKC
  FM021500 20012G22KT P6SM SKC


Raw METAR
KORD 011651Z 34013KT 10SM BKN033 BKN250 00/M07 A3022 RMK AO2 SLP242 T00001067
KORD 011551Z 33008KT 10SM FEW100 FEW250 M01/M08 A3019 RMK AO2 SLP231 T10061078
KORD 011451Z 32012KT 10SM FEW090 FEW140 SCT250 M02/M08 A3019 RMK AO2 SLP229 T10171078 53028
KORD 011351Z 30010KT 10SM SCT090 BKN140 BKN250 M03/M08 A3016 RMK AO2 SLP222 T10331078

METAR Board
Radar Display
Forecast Discussion
For situational awareness. Not to be used for flight planning purposes.